Impacts TAF Board
For situational awareness. Not to be used for flight planning purposes.
IDs:

KINK - Wink/Winkler Cnty, TX, US

Issued at 1720 UTC 08 Aug 2020
Updated at 2138 UTC 08 Aug 2020
Potential Impact None Slight Moderate High
Time2053Z 08/22Z 08/23Z 09/00Z 09/01Z 09/02Z 09/03Z 09/04Z 09/05Z 09/06Z 09/07Z 09/08Z 09/09Z 09/10Z>>
Type OBS PRVL PRVL PRVL PRVL PRVL PRVL PRVL PRVL PRVL PRVL PRVL PRVL PRVL
VIS 10 >6 >6 >6 >6 >6 >6 >6 >6 >6 >6 >6 >6 >6
CIG -- -- -- -- -- -- -- -- -- -- -- -- -- --
Cover CLR SCT SCT SCT SCT SCT SCT SCT SCT SCT SCT SCT SCT SCT
FltCat VFR VFR VFR VFR VFR VFR VFR VFR VFR VFR VFR VFR VFR VFR
WX -- -- -- -- -- -- -- -- -- -- -- -- -- --
WDir 160 150 150 150 150 150 140 140 140 140 140 140 140 140
WSpd 11 13 13 13 13 13 8 8 8 8 8 8 8 8
WGst 20 19 19 19 19 19 -- -- -- -- -- -- -- --
Raw TAF
KINK 081720Z 0818/0918 15013G19KT P6SM SCT250
  FM090300 14008KT P6SM SCT250


Raw METAR
KINK 082053Z AUTO 16011G20KT 10SM CLR 38/12 A3000 RMK AO2 SLP103 T03830122 58022
KINK 081953Z AUTO 16012G19KT 10SM CLR 37/13 A3003 RMK AO2 SLP113 T03670128
KINK 081853Z AUTO 17011G18KT 10SM CLR 36/13 A3005 RMK AO2 SLP120 T03560133

METAR Board
Radar Display
Forecast Discussion
For situational awareness. Not to be used for flight planning purposes.